createdAt,value
2023-01-11T00:01:27.213Z,51.30
2023-01-11T00:03:55.689Z,51.35
2023-01-11T00:06:26.519Z,51.67
2023-01-11T00:08:56.125Z,51.54
2023-01-11T00:11:24.091Z,51.64
2023-01-11T00:13:51.954Z,51.60
2023-01-11T00:16:21.159Z,51.58
2023-01-11T00:18:49.044Z,51.36
2023-01-11T00:21:16.866Z,51.47
2023-01-11T00:23:44.719Z,51.71
2023-01-11T00:26:13.852Z,51.33
2023-01-11T00:28:41.821Z,51.42
2023-01-11T00:31:09.636Z,51.73
2023-01-11T00:33:38.921Z,51.67
2023-01-11T00:36:07.254Z,51.48
2023-01-11T00:38:53.796Z,51.62
2023-01-11T00:41:40.988Z,51.40
2023-01-11T00:44:28.645Z,51.77
2023-01-11T00:47:15.214Z,51.46
2023-01-11T00:49:44.944Z,51.44
2023-01-11T00:52:12.852Z,51.71
2023-01-11T00:54:41.994Z,51.69
2023-01-11T00:57:10.202Z,51.49
2023-01-11T00:59:40.532Z,51.68
2023-01-11T01:02:09.728Z,51.67
2023-01-11T01:04:38.344Z,51.40
2023-01-11T01:07:08.313Z,51.59
2023-01-11T01:09:36.164Z,51.94
2023-01-11T01:12:04.216Z,51.47
2023-01-11T01:14:33.112Z,51.85
2023-01-11T01:17:02.686Z,51.61
2023-01-11T01:19:31.558Z,51.83
2023-01-11T01:22:00.485Z,51.58
2023-01-11T01:24:30.902Z,51.91
2023-01-11T01:26:59.751Z,51.86
2023-01-11T01:29:27.517Z,51.75
2023-01-11T01:31:55.458Z,52.05
2023-01-11T01:34:23.262Z,51.79
2023-01-11T01:36:51.052Z,51.40
2023-01-11T01:39:18.869Z,51.70
2023-01-11T01:41:48.313Z,51.72
2023-01-11T01:44:54.107Z,52.09
2023-01-11T01:47:25.242Z,51.96
2023-01-11T01:49:55.922Z,52.12
2023-01-11T01:52:29.286Z,52.06
2023-01-11T01:55:02.058Z,52.39
2023-01-11T01:57:35.076Z,52.20
2023-01-11T02:00:07.764Z,52.25
2023-01-11T02:02:38.162Z,51.85
2023-01-11T02:05:07.776Z,51.81
2023-01-11T02:07:39.081Z,52.00
2023-01-11T02:10:10.266Z,52.06
2023-01-11T02:12:42.878Z,52.34
2023-01-11T02:15:11.908Z,52.07
2023-01-11T02:17:39.852Z,52.15
2023-01-11T02:20:20.724Z,52.72
2023-01-11T02:23:10.630Z,53.33
2023-01-11T02:25:59.327Z,53.37
2023-01-11T02:28:34.636Z,52.82
2023-01-11T02:31:11.924Z,53.26
2023-01-11T02:33:48.211Z,53.08
2023-01-11T02:36:27.480Z,53.51
2023-01-11T02:38:58.870Z,53.07
2023-01-11T02:41:53.777Z,53.73
2023-01-11T02:44:46.542Z,54.10
2023-01-11T02:47:19.960Z,53.98
2023-01-11T02:49:52.829Z,53.81
2023-01-11T02:52:28.346Z,54.03
2023-01-11T02:55:00.000Z,53.88
2023-01-11T02:57:29.637Z,53.66
2023-01-11T03:00:00.398Z,53.97
2023-01-11T03:02:29.233Z,53.75
2023-01-11T03:04:57.025Z,54.20
2023-01-11T03:07:42.530Z,54.93
2023-01-11T03:10:22.232Z,55.07
2023-01-11T03:13:03.892Z,54.89
2023-01-11T03:16:03.283Z,55.16
2023-01-11T03:18:45.249Z,55.46
2023-01-11T03:21:30.147Z,55.01
2023-01-11T03:24:12.042Z,55.31
2023-01-11T03:26:54.931Z,54.97
2023-01-11T03:29:29.541Z,54.98
2023-01-11T03:32:09.114Z,54.96
2023-01-11T03:34:41.689Z,54.80
2023-01-11T03:37:14.808Z,54.44
2023-01-11T03:39:47.187Z,54.80
2023-01-11T03:42:17.963Z,54.74
2023-01-11T03:44:51.447Z,54.85
2023-01-11T03:47:24.919Z,54.91
2023-01-11T03:49:56.032Z,54.75
2023-01-11T03:52:30.002Z,54.63
2023-01-11T03:55:00.239Z,54.84
2023-01-11T03:57:33.094Z,55.09
2023-01-11T04:00:01.042Z,56.07
2023-01-11T04:02:36.422Z,55.81
2023-01-11T04:05:04.712Z,55.13
2023-01-11T04:07:32.760Z,54.99
2023-01-11T04:10:00.614Z,55.08
2023-01-11T04:12:28.725Z,55.11
2023-01-11T04:14:56.594Z,55.00
2023-01-11T04:17:24.792Z,55.42
2023-01-11T04:19:53.979Z,55.50
2023-01-11T04:22:21.752Z,55.41
2023-01-11T04:24:49.667Z,55.78
2023-01-11T04:27:17.555Z,55.66
2023-01-11T04:29:45.349Z,55.78
2023-01-11T04:32:13.159Z,55.88
2023-01-11T04:34:40.940Z,55.69
2023-01-11T04:37:11.914Z,55.83
2023-01-11T04:39:39.907Z,55.69
2023-01-11T04:42:19.841Z,56.29
2023-01-11T04:44:48.814Z,56.18
2023-01-11T04:47:17.183Z,56.04
2023-01-11T04:49:45.251Z,56.42
2023-01-11T04:52:16.418Z,56.35
2023-01-11T04:54:44.748Z,56.34
2023-01-11T04:57:14.823Z,56.02
2023-01-11T04:59:43.159Z,56.46
2023-01-11T05:02:10.966Z,56.44
2023-01-11T05:04:38.750Z,56.11
2023-01-11T05:07:09.356Z,56.63
2023-01-11T05:09:38.500Z,56.81
2023-01-11T05:12:06.416Z,56.38
2023-01-11T05:14:34.209Z,56.46
2023-01-11T05:17:01.955Z,56.56
2023-01-11T05:19:29.839Z,56.69
2023-01-11T05:21:57.763Z,56.65
2023-01-11T05:24:25.627Z,56.60
2023-01-11T05:26:54.856Z,56.98
2023-01-11T05:29:22.725Z,57.07
2023-01-11T05:31:50.602Z,56.86
2023-01-11T05:34:19.313Z,57.15
2023-01-11T05:36:47.281Z,57.10
2023-01-11T05:39:15.915Z,56.97
2023-01-11T05:41:43.681Z,57.42
2023-01-11T05:44:32.000Z,57.44
2023-01-11T05:47:00.241Z,57.21
2023-01-11T05:49:28.055Z,57.29
2023-01-11T05:51:55.996Z,57.42
2023-01-11T05:54:23.791Z,57.53
2023-01-11T05:56:51.657Z,57.42
2023-01-11T05:59:20.855Z,57.38
2023-01-11T06:01:49.953Z,57.43
2023-01-11T06:04:17.764Z,57.59
2023-01-11T06:06:47.111Z,57.29
2023-01-11T06:09:15.042Z,57.69
2023-01-11T06:11:43.391Z,57.72
2023-01-11T06:14:11.184Z,57.46
2023-01-11T06:16:40.416Z,57.52
2023-01-11T06:19:08.219Z,58.00
2023-01-11T06:21:36.017Z,57.57
2023-01-11T06:24:03.827Z,57.61
2023-01-11T06:26:32.281Z,57.83
2023-01-11T06:29:00.261Z,57.42
2023-01-11T06:31:28.093Z,57.63
2023-01-11T06:33:57.235Z,57.83
2023-01-11T06:36:25.056Z,57.87
2023-01-11T06:38:53.574Z,57.44
2023-01-11T06:41:21.324Z,57.56
2023-01-11T06:43:49.082Z,57.63
2023-01-11T06:46:18.866Z,57.55
2023-01-11T06:48:47.378Z,57.73
2023-01-11T06:51:17.255Z,57.60
2023-01-11T06:53:46.447Z,57.79
2023-01-11T06:56:15.881Z,58.03
2023-01-11T06:58:46.760Z,58.05
2023-01-11T07:01:15.558Z,57.80
2023-01-11T07:03:43.780Z,57.75
2023-01-11T07:06:11.620Z,57.76
2023-01-11T07:08:40.759Z,57.44
2023-01-11T07:11:10.023Z,57.40
2023-01-11T07:13:38.174Z,57.63
2023-01-11T07:16:06.291Z,57.74
2023-01-11T07:18:34.156Z,57.81
2023-01-11T07:21:02.409Z,57.62
2023-01-11T07:23:30.198Z,58.20
2023-01-11T07:25:59.541Z,57.91
2023-01-11T07:28:28.456Z,57.96
2023-01-11T07:30:59.218Z,58.10
2023-01-11T07:33:27.468Z,58.08
2023-01-11T07:35:55.656Z,57.88
2023-01-11T07:38:24.028Z,57.85
2023-01-11T07:40:51.854Z,57.86
2023-01-11T07:43:23.089Z,58.12
2023-01-11T07:45:53.615Z,57.74
2023-01-11T07:48:26.368Z,57.61
2023-01-11T07:50:54.965Z,57.86
2023-01-11T07:53:25.582Z,57.45
2023-01-11T07:55:53.663Z,57.48
2023-01-11T07:58:23.102Z,57.53
2023-01-11T08:00:50.927Z,57.64
2023-01-11T08:03:18.892Z,57.40
2023-01-11T08:05:50.850Z,57.86
2023-01-11T08:08:18.686Z,57.43
2023-01-11T08:10:46.461Z,57.32
2023-01-11T08:13:33.040Z,57.42
2023-01-11T08:16:02.345Z,57.75
2023-01-11T08:18:30.167Z,57.65
2023-01-11T08:20:58.216Z,57.10
2023-01-11T08:23:27.174Z,57.64
2023-01-11T08:25:57.938Z,57.63
2023-01-11T08:28:25.835Z,57.28
2023-01-11T08:30:53.767Z,57.53
2023-01-11T08:33:22.909Z,57.56
2023-01-11T08:35:50.871Z,57.18
2023-01-11T08:38:18.641Z,57.51
2023-01-11T08:40:46.420Z,57.30
2023-01-11T08:43:14.214Z,57.19
2023-01-11T08:45:41.977Z,57.59
2023-01-11T08:48:09.767Z,57.61
2023-01-11T08:50:38.930Z,57.05
2023-01-11T08:53:06.711Z,57.46
2023-01-11T08:55:34.540Z,57.34
2023-01-11T08:58:02.400Z,56.75
2023-01-11T09:00:30.314Z,57.07
2023-01-11T09:03:01.207Z,56.92
2023-01-11T09:05:29.187Z,56.82
2023-01-11T09:07:58.843Z,57.19
2023-01-11T09:10:27.258Z,56.82
2023-01-11T09:12:55.301Z,57.30
2023-01-11T09:15:23.708Z,57.08
2023-01-11T09:17:51.911Z,57.44
2023-01-11T09:20:21.090Z,57.27
2023-01-11T09:22:50.705Z,57.29
2023-01-11T09:25:21.515Z,57.20
2023-01-11T09:27:50.760Z,57.35
2023-01-11T09:30:20.267Z,57.14
2023-01-11T09:32:48.561Z,57.20
2023-01-11T09:35:18.008Z,56.96
2023-01-11T09:37:49.930Z,57.56
2023-01-11T09:40:23.179Z,57.43
2023-01-11T09:42:52.760Z,57.48
2023-01-11T09:45:23.372Z,57.00
2023-01-11T09:47:57.105Z,57.49
2023-01-11T09:50:29.415Z,57.08
2023-01-11T09:52:59.986Z,57.06
2023-01-11T09:55:35.114Z,57.10
2023-01-11T09:58:28.324Z,57.37
2023-01-11T10:01:06.982Z,57.00
2023-01-11T10:03:53.137Z,56.83
2023-01-11T10:06:27.010Z,56.78
2023-01-11T10:18:30.186Z,56.78
2023-01-11T10:18:32.896Z,56.98
2023-01-11T10:21:12.807Z,56.64
2023-01-11T10:23:49.634Z,56.47
2023-01-11T10:26:27.340Z,56.85
2023-01-11T10:29:22.028Z,56.45
2023-01-11T10:32:11.063Z,56.59
2023-01-11T10:34:59.943Z,56.90
2023-01-11T10:37:50.014Z,56.70
2023-01-11T10:40:40.148Z,56.50
2023-01-11T10:43:16.841Z,56.74
2023-01-11T10:45:51.339Z,56.43
2023-01-11T10:48:25.357Z,56.63
2023-01-11T10:51:04.537Z,56.71
2023-01-11T10:53:38.220Z,56.61
2023-01-11T10:56:19.654Z,56.83
2023-01-11T10:59:05.071Z,56.56
2023-01-11T11:01:50.189Z,57.43
2023-01-11T11:04:36.114Z,57.38
2023-01-11T11:07:12.355Z,57.06
2023-01-11T11:09:51.335Z,56.78
2023-01-11T11:12:24.013Z,56.62
2023-01-11T11:15:00.274Z,56.37
2023-01-11T11:17:33.057Z,56.62
2023-01-11T11:20:00.990Z,57.27
2023-01-11T11:22:28.887Z,56.22
2023-01-11T11:25:04.978Z,55.91
2023-01-11T11:27:41.912Z,56.23
2023-01-11T11:30:12.973Z,55.86
2023-01-11T11:32:47.696Z,56.26
2023-01-11T11:35:31.550Z,56.57
2023-01-11T11:37:59.602Z,56.21
2023-01-11T11:40:33.413Z,56.42
2023-01-11T11:43:13.234Z,56.28
2023-01-11T11:45:52.895Z,56.14
2023-01-11T11:48:23.349Z,56.11
2023-01-11T11:50:52.563Z,55.77
2023-01-11T11:53:42.938Z,55.57
2023-01-11T11:56:21.998Z,55.74
2023-01-11T11:58:50.728Z,55.88
2023-01-11T12:01:28.561Z,55.49
2023-01-11T12:04:01.448Z,55.59
2023-01-11T12:06:29.778Z,55.98
2023-01-11T12:09:01.306Z,55.22
2023-01-11T12:11:32.941Z,54.69
2023-01-11T12:14:04.813Z,54.05
2023-01-11T12:16:41.582Z,52.85
2023-01-11T12:19:30.425Z,52.79
2023-01-11T12:22:12.571Z,52.22
2023-01-11T12:24:40.487Z,53.03
2023-01-11T12:27:18.744Z,52.03
2023-01-11T12:30:20.326Z,50.86
2023-01-11T12:33:10.557Z,50.70
2023-01-11T12:35:51.224Z,50.83
2023-01-11T12:38:32.000Z,50.61
2023-01-11T12:41:16.531Z,49.57
2023-01-11T12:44:01.272Z,50.11
2023-01-11T12:46:43.777Z,49.63
2023-01-11T12:49:25.064Z,49.33
2023-01-11T12:52:14.137Z,48.83
2023-01-11T12:55:01.803Z,48.97
2023-01-11T12:57:37.081Z,49.58
2023-01-11T13:00:44.305Z,48.91
2023-01-11T13:03:37.355Z,49.04
2023-01-11T13:06:10.988Z,49.43
2023-01-11T13:08:53.898Z,49.57
2023-01-11T13:11:38.223Z,49.40
2023-01-11T13:14:31.811Z,48.21
2023-01-11T13:17:11.699Z,48.74
2023-01-11T13:19:45.570Z,48.46
2023-01-11T13:22:17.132Z,49.12
2023-01-11T13:24:50.432Z,47.99
2023-01-11T13:27:22.403Z,48.08
2023-01-11T13:29:53.666Z,48.16
2023-01-11T13:32:24.720Z,47.74
2023-01-11T13:34:55.642Z,47.83
2023-01-11T13:37:30.642Z,47.32
2023-01-11T13:40:08.092Z,47.41
2023-01-11T13:42:39.621Z,47.59
2023-01-11T13:45:16.683Z,47.22
2023-01-11T13:47:48.650Z,47.26
2023-01-11T13:50:21.617Z,47.07
2023-01-11T13:53:03.476Z,46.40
2023-01-11T13:55:41.766Z,46.80
2023-01-11T13:58:17.006Z,47.34
2023-01-11T14:00:48.785Z,47.48
2023-01-11T14:03:27.868Z,46.87
2023-01-11T14:06:09.301Z,46.75
2023-01-11T14:09:01.565Z,46.14
2023-01-11T14:11:42.093Z,46.28
2023-01-11T14:14:37.280Z,46.46
2023-01-11T14:17:25.763Z,46.21
2023-01-11T14:20:01.073Z,46.34
2023-01-11T14:22:40.257Z,46.25
2023-01-11T14:25:19.657Z,47.10
2023-01-11T14:28:25.461Z,46.09
2023-01-11T14:31:19.749Z,46.05
2023-01-11T14:34:06.336Z,46.14
2023-01-11T14:37:02.495Z,45.93
2023-01-11T14:40:01.856Z,46.41
2023-01-11T14:42:59.202Z,46.30
2023-01-11T14:45:45.760Z,46.28
2023-01-11T14:48:29.957Z,46.06
2023-01-11T14:51:25.920Z,45.34
2023-01-11T14:54:01.865Z,46.60
2023-01-11T14:56:50.585Z,45.42
2023-01-11T14:59:32.873Z,45.43
2023-01-11T15:02:28.876Z,45.61
2023-01-11T15:05:34.797Z,45.69
2023-01-11T15:08:17.005Z,45.34
2023-01-11T15:10:56.447Z,45.71
2023-01-11T15:13:26.546Z,46.69
2023-01-11T15:16:27.221Z,45.84
2023-01-11T15:18:57.330Z,46.45
2023-01-11T15:21:27.381Z,46.38
2023-01-11T15:23:58.136Z,46.19
2023-01-11T15:26:27.791Z,46.34
2023-01-11T15:28:57.364Z,46.08
2023-01-11T15:31:49.925Z,45.56
2023-01-11T15:34:28.274Z,45.34
2023-01-11T15:37:37.014Z,45.73
2023-01-11T15:40:12.507Z,46.02
2023-01-11T15:43:20.979Z,45.76
2023-01-11T15:46:46.006Z,45.53
2023-01-11T15:50:06.127Z,45.99
2023-01-11T15:53:09.564Z,45.38
2023-01-11T15:56:12.805Z,45.62
2023-01-11T15:59:30.331Z,45.86
2023-01-11T16:02:55.489Z,45.55
2023-01-11T16:05:29.267Z,45.82
2023-01-11T16:08:08.523Z,46.13
2023-01-11T16:10:56.528Z,45.81
2023-01-11T16:13:41.867Z,45.87
2023-01-11T16:16:22.055Z,45.73
2023-01-11T16:18:54.510Z,46.33
2023-01-11T16:21:33.473Z,45.55
2023-01-11T16:24:10.937Z,46.04
2023-01-11T16:26:44.328Z,46.12
2023-01-11T16:29:19.451Z,45.99
2023-01-11T16:31:59.638Z,45.58
2023-01-11T16:34:28.960Z,46.46
2023-01-11T16:36:58.433Z,45.86
2023-01-11T16:39:30.037Z,46.24
2023-01-11T16:42:03.242Z,45.80
2023-01-11T16:44:42.078Z,45.68
2023-01-11T16:47:17.004Z,45.75
2023-01-11T16:49:48.973Z,46.35
2023-01-11T16:52:40.247Z,45.31
2023-01-11T16:55:29.669Z,45.75
2023-01-11T16:58:01.140Z,45.90
2023-01-11T17:00:35.910Z,46.16
2023-01-11T17:03:17.894Z,45.58
2023-01-11T17:05:55.124Z,45.52
2023-01-11T17:08:28.321Z,45.29
2023-01-11T17:11:00.135Z,45.67
2023-01-11T17:14:12.756Z,45.69
2023-01-11T17:16:42.845Z,46.01
2023-01-11T17:19:16.266Z,45.48
2023-01-11T17:21:49.715Z,45.43
2023-01-11T17:24:23.905Z,45.82
2023-01-11T17:26:54.925Z,46.07
2023-01-11T17:29:30.162Z,45.51
2023-01-11T17:32:00.624Z,46.08
2023-01-11T17:34:31.947Z,45.62
2023-01-11T17:37:01.412Z,46.03
2023-01-11T17:39:34.280Z,45.08
2023-01-11T17:42:20.370Z,46.04
2023-01-11T17:45:09.418Z,45.84
2023-01-11T17:47:40.179Z,45.50
2023-01-11T17:50:19.927Z,44.96
2023-01-11T17:52:54.848Z,45.59
2023-01-11T17:55:26.589Z,45.59
2023-01-11T17:58:17.406Z,44.99
2023-01-11T18:01:03.146Z,45.38
2023-01-11T18:03:32.013Z,45.41
2023-01-11T18:06:13.678Z,44.93
2023-01-11T18:08:47.889Z,44.81
2023-01-11T18:11:25.284Z,44.56
2023-01-11T18:13:54.227Z,45.35
2023-01-11T18:16:23.625Z,45.56
2023-01-11T18:18:53.377Z,45.26
2023-01-11T18:21:41.292Z,44.50
2023-01-11T18:24:35.739Z,44.39
2023-01-11T18:27:29.250Z,44.52
2023-01-11T18:30:01.216Z,45.21
2023-01-11T18:32:35.717Z,44.94
2023-01-11T18:35:04.110Z,45.04
2023-01-11T18:37:31.923Z,45.26
2023-01-11T18:40:01.364Z,45.49
2023-01-11T18:42:33.934Z,45.16
2023-01-11T18:45:01.753Z,45.60
2023-01-11T18:47:30.459Z,45.20
2023-01-11T18:50:03.743Z,44.97
2023-01-11T18:52:31.860Z,45.51
2023-01-11T18:54:59.719Z,45.27
2023-01-11T18:57:27.599Z,45.44
2023-01-11T18:59:56.970Z,44.92
2023-01-11T19:02:27.829Z,45.28
2023-01-11T19:04:57.339Z,45.40
2023-01-11T19:07:26.954Z,45.06
2023-01-11T19:09:55.920Z,45.20
2023-01-11T19:12:24.776Z,45.16
2023-01-11T19:14:52.685Z,45.33
2023-01-11T19:17:22.104Z,44.83
2023-01-11T19:19:50.013Z,45.28
2023-01-11T19:22:17.902Z,45.22
2023-01-11T19:24:45.777Z,44.87
2023-01-11T19:27:14.045Z,45.24
2023-01-11T19:29:42.254Z,45.40
2023-01-11T19:32:10.400Z,45.00
2023-01-11T19:34:40.659Z,45.09
2023-01-11T19:37:08.676Z,45.35
2023-01-11T19:39:36.870Z,45.07
2023-01-11T19:42:04.904Z,45.28
2023-01-11T19:44:33.825Z,45.15
2023-01-11T19:47:11.291Z,44.97
2023-01-11T19:49:41.532Z,45.33
2023-01-11T19:52:13.427Z,45.16
2023-01-11T19:54:42.789Z,45.44
2023-01-11T19:57:11.433Z,45.57
2023-01-11T19:59:39.474Z,45.47
2023-01-11T20:02:07.967Z,45.21
2023-01-11T20:04:35.887Z,44.94
2023-01-11T20:07:05.401Z,45.12
2023-01-11T20:09:33.482Z,45.48
2023-01-11T20:12:01.392Z,45.15
2023-01-11T20:14:29.324Z,45.43
2023-01-11T20:16:57.377Z,45.31
2023-01-11T20:19:25.313Z,45.43
2023-01-11T20:21:53.244Z,44.98
2023-01-11T20:24:28.102Z,45.34
2023-01-11T20:26:56.634Z,45.09
2023-01-11T20:29:24.618Z,45.30
2023-01-11T20:31:52.654Z,45.35
2023-01-11T20:34:20.848Z,45.50
2023-01-11T20:36:49.108Z,45.35
2023-01-11T20:39:17.585Z,45.33
2023-01-11T20:41:49.928Z,45.07
2023-01-11T20:44:19.931Z,45.23
2023-01-11T20:46:48.680Z,45.35
2023-01-11T20:49:16.979Z,45.06
2023-01-11T20:51:45.760Z,45.28
2023-01-11T20:54:14.399Z,45.12
2023-01-11T20:56:42.577Z,45.42
2023-01-11T20:59:13.625Z,45.19
2023-01-11T21:01:41.645Z,45.09
2023-01-11T21:04:11.298Z,44.66
2023-01-11T21:06:41.216Z,44.77
2023-01-11T21:09:10.565Z,44.99
2023-01-11T21:11:41.171Z,45.07
2023-01-11T21:14:11.994Z,45.05
2023-01-11T21:16:44.308Z,45.00
2023-01-11T21:19:13.588Z,45.19
2023-01-11T21:21:42.021Z,44.68
2023-01-11T21:24:13.079Z,44.87
2023-01-11T21:26:42.280Z,45.00
2023-01-11T21:29:11.499Z,45.11
2023-01-11T21:31:40.629Z,45.41
2023-01-11T21:34:11.618Z,44.90
2023-01-11T21:36:40.092Z,45.40
2023-01-11T21:39:09.298Z,45.15
2023-01-11T21:41:54.785Z,45.19
2023-01-11T21:44:26.441Z,45.03
2023-01-11T21:46:55.836Z,44.89
2023-01-11T21:49:25.275Z,45.21
2023-01-11T21:51:56.035Z,45.33
2023-01-11T21:54:23.928Z,45.38
2023-01-11T21:56:52.641Z,44.76
2023-01-11T21:59:21.449Z,44.99
2023-01-11T22:01:49.800Z,45.24
2023-01-11T22:04:20.121Z,44.86
2023-01-11T22:06:55.134Z,44.79
2023-01-11T22:09:24.657Z,45.49
2023-01-11T22:11:52.664Z,45.33
2023-01-11T22:14:20.508Z,45.39
2023-01-11T22:16:48.636Z,45.46
2023-01-11T22:19:17.279Z,45.50
2023-01-11T22:21:45.481Z,45.59
2023-01-11T22:24:15.448Z,45.50
2023-01-11T22:26:43.236Z,45.54
2023-01-11T22:29:15.038Z,45.70
2023-01-11T22:31:46.588Z,45.72
2023-01-11T22:34:15.359Z,45.90
2023-01-11T22:36:43.832Z,45.66
2023-01-11T22:39:12.776Z,45.88
2023-01-11T22:41:42.128Z,45.58
2023-01-11T22:44:11.111Z,45.83
2023-01-11T22:46:39.178Z,45.87
2023-01-11T22:49:07.818Z,45.77
2023-01-11T22:51:36.060Z,45.79
2023-01-11T22:54:05.132Z,45.62
2023-01-11T22:56:33.813Z,46.00
2023-01-11T22:59:03.232Z,45.78
2023-01-11T23:01:32.852Z,45.79
2023-01-11T23:04:01.722Z,45.65
2023-01-11T23:06:31.481Z,45.69
2023-01-11T23:08:59.896Z,46.04
2023-01-11T23:12:01.369Z,45.76
2023-01-11T23:14:32.930Z,45.81
2023-01-11T23:17:02.110Z,46.19
2023-01-11T23:19:31.968Z,46.18
2023-01-11T23:22:00.192Z,46.35
2023-01-11T23:24:27.985Z,46.14
2023-01-11T23:26:55.997Z,46.06
2023-01-11T23:29:24.256Z,46.28
2023-01-11T23:31:53.512Z,46.25
2023-01-11T23:34:21.330Z,46.58
2023-01-11T23:36:49.213Z,46.74
2023-01-11T23:39:18.811Z,46.96
2023-01-11T23:42:04.262Z,46.66
2023-01-11T23:44:32.114Z,47.14
2023-01-11T23:47:19.095Z,47.33
2023-01-11T23:49:46.935Z,47.09
2023-01-11T23:52:14.704Z,47.14
2023-01-11T23:54:43.378Z,47.28
2023-01-11T23:57:12.336Z,47.42
2023-01-11T23:59:41.617Z,47.01
